createdAt,value
2023-02-14T00:01:54.301Z,14.27
2023-02-14T00:04:22.888Z,13.57
2023-02-14T00:06:51.380Z,15.27
2023-02-14T00:09:20.994Z,17.63
2023-02-14T00:11:49.879Z,17.73
2023-02-14T00:14:36.039Z,17.47
2023-02-14T00:17:05.888Z,15.60
2023-02-14T00:19:35.929Z,14.40
2023-02-14T00:22:04.858Z,14.07
2023-02-14T00:24:33.560Z,15.47
2023-02-14T00:27:02.090Z,14.40
2023-02-14T00:29:32.669Z,13.90
2023-02-14T00:32:04.885Z,13.97
2023-02-14T00:34:36.399Z,14.23
2023-02-14T00:37:05.118Z,14.77
2023-02-14T00:39:33.619Z,18.73
2023-02-14T00:42:02.109Z,19.00
2023-02-14T00:44:30.655Z,19.33
2023-02-14T00:46:59.110Z,20.47
2023-02-14T00:49:29.015Z,19.70
2023-02-14T00:52:00.545Z,20.50
2023-02-14T00:54:29.224Z,19.97
2023-02-14T00:57:00.635Z,20.47
2023-02-14T00:59:30.646Z,18.87
2023-02-14T01:01:59.159Z,21.33
2023-02-14T01:04:29.124Z,20.37
2023-02-14T01:06:57.609Z,19.50
2023-02-14T01:09:26.085Z,18.27
2023-02-14T01:11:55.041Z,19.10
2023-02-14T01:14:23.518Z,19.10
2023-02-14T01:16:52.100Z,18.93
2023-02-14T01:19:20.566Z,18.40
2023-02-14T01:21:50.426Z,16.27
2023-02-14T01:24:18.953Z,17.23
2023-02-14T01:26:47.430Z,17.30
2023-02-14T01:29:15.870Z,17.20
2023-02-14T01:31:44.909Z,19.57
2023-02-14T01:34:13.526Z,21.77
2023-02-14T01:36:42.369Z,20.47
2023-02-14T01:39:14.842Z,23.83
2023-02-14T01:41:45.188Z,24.50
2023-02-14T01:44:46.899Z,23.77
2023-02-14T01:47:16.142Z,22.53
2023-02-14T01:49:48.491Z,23.20
2023-02-14T01:52:20.714Z,22.40
2023-02-14T01:54:54.545Z,24.30
2023-02-14T01:57:25.725Z,20.47
2023-02-14T02:00:16.777Z,29.33
2023-02-14T02:02:45.717Z,19.97
2023-02-14T02:05:16.119Z,24.57
2023-02-14T02:07:44.615Z,20.43
2023-02-14T02:10:14.618Z,22.70
2023-02-14T02:12:44.149Z,18.00
2023-02-14T02:15:12.860Z,19.93
2023-02-14T02:17:52.167Z,22.60
2023-02-14T02:21:06.377Z,22.83
2023-02-14T02:24:11.361Z,25.30
2023-02-14T02:27:26.116Z,25.13
2023-02-14T02:30:31.924Z,21.10
2023-02-14T02:33:33.350Z,31.37
2023-02-14T02:36:34.156Z,27.17
2023-02-14T02:39:13.563Z,21.07
2023-02-14T02:41:55.085Z,22.80
2023-02-14T02:44:32.940Z,20.60
2023-02-14T02:47:08.125Z,20.20
2023-02-14T02:50:03.926Z,23.30
2023-02-14T02:52:58.640Z,25.07
2023-02-14T02:55:54.801Z,28.87
2023-02-14T02:58:24.517Z,26.00
2023-02-14T03:00:54.772Z,28.17
2023-02-14T03:03:43.143Z,27.17
2023-02-14T03:06:11.626Z,32.10
2023-02-14T03:08:41.473Z,35.40
2023-02-14T03:11:13.974Z,41.83
2023-02-14T03:14:09.083Z,30.53
2023-02-14T03:16:47.227Z,27.43
2023-02-14T03:20:09.062Z,32.23
2023-02-14T03:22:49.702Z,25.03
2023-02-14T03:25:30.099Z,19.07
2023-02-14T03:28:05.542Z,30.33
2023-02-14T03:30:41.803Z,30.30
2023-02-14T03:33:19.848Z,25.87
2023-02-14T03:35:55.554Z,22.03
2023-02-14T03:38:28.717Z,25.73
2023-02-14T03:41:02.671Z,24.43
2023-02-14T03:43:35.421Z,21.43
2023-02-14T03:46:09.584Z,21.00
2023-02-14T03:48:40.973Z,22.77
2023-02-14T03:51:12.642Z,25.73
2023-02-14T03:53:45.554Z,23.33
2023-02-14T03:56:19.287Z,20.83
2023-02-14T03:58:51.738Z,19.20
2023-02-14T04:01:24.451Z,19.10
2023-02-14T04:03:56.502Z,18.33
2023-02-14T04:06:25.237Z,19.73
2023-02-14T04:08:53.998Z,16.43
2023-02-14T04:11:24.656Z,19.53
2023-02-14T04:13:53.269Z,17.47
2023-02-14T04:16:21.782Z,18.67
2023-02-14T04:19:08.795Z,16.60
2023-02-14T04:21:37.304Z,14.97
2023-02-14T04:24:06.545Z,15.60
2023-02-14T04:26:36.371Z,15.37
2023-02-14T04:29:04.820Z,16.20
2023-02-14T04:31:33.354Z,15.37
2023-02-14T04:34:01.837Z,15.97
2023-02-14T04:36:30.312Z,15.83
2023-02-14T04:38:58.779Z,15.50
2023-02-14T04:41:27.209Z,18.73
2023-02-14T04:43:57.026Z,21.20
2023-02-14T04:46:25.573Z,15.20
2023-02-14T04:48:54.113Z,16.23
2023-02-14T04:51:22.581Z,15.63
2023-02-14T04:53:51.047Z,17.30
2023-02-14T04:56:19.542Z,17.50
2023-02-14T04:58:47.949Z,20.97
2023-02-14T05:01:17.883Z,18.30
2023-02-14T05:03:46.398Z,19.30
2023-02-14T05:06:14.904Z,20.87
2023-02-14T05:08:43.658Z,15.33
2023-02-14T05:11:12.377Z,15.80
2023-02-14T05:13:40.867Z,16.23
2023-02-14T05:16:09.404Z,16.97
2023-02-14T05:18:39.410Z,17.23
2023-02-14T05:21:08.086Z,16.57
2023-02-14T05:23:36.577Z,16.40
2023-02-14T05:26:05.854Z,17.10
2023-02-14T05:28:34.611Z,15.57
2023-02-14T05:31:03.496Z,15.20
2023-02-14T05:33:32.272Z,16.17
2023-02-14T05:36:02.707Z,15.27
2023-02-14T05:38:33.357Z,17.77
2023-02-14T05:41:02.366Z,15.63
2023-02-14T05:43:31.398Z,16.07
2023-02-14T05:46:00.255Z,16.17
2023-02-14T05:48:28.736Z,17.83
2023-02-14T05:50:57.373Z,16.47
2023-02-14T05:53:27.506Z,15.20
2023-02-14T05:55:56.022Z,15.80
2023-02-14T05:58:24.477Z,14.40
2023-02-14T06:00:52.968Z,15.13
2023-02-14T06:03:21.468Z,15.40
2023-02-14T06:05:49.938Z,17.00
2023-02-14T06:08:18.501Z,16.57
2023-02-14T06:10:48.333Z,15.00
2023-02-14T06:13:16.886Z,16.87
2023-02-14T06:15:45.503Z,16.23
2023-02-14T06:18:13.985Z,15.83
2023-02-14T06:20:42.489Z,16.97
2023-02-14T06:23:11.103Z,14.97
2023-02-14T06:25:39.627Z,13.80
2023-02-14T06:28:09.420Z,14.47
2023-02-14T06:30:38.021Z,15.03
2023-02-14T06:33:06.534Z,15.47
2023-02-14T06:35:35.014Z,13.93
2023-02-14T06:38:03.468Z,15.50
2023-02-14T06:40:31.977Z,15.23
2023-02-14T06:43:00.481Z,14.00
2023-02-14T06:45:30.352Z,16.10
2023-02-14T06:47:59.982Z,14.60
2023-02-14T06:50:28.564Z,14.53
2023-02-14T06:52:57.011Z,15.67
2023-02-14T06:55:25.727Z,14.37
2023-02-14T06:57:54.179Z,14.77
2023-02-14T07:00:23.547Z,14.60
2023-02-14T07:02:53.403Z,14.20
2023-02-14T07:05:22.343Z,13.97
2023-02-14T07:07:50.842Z,13.80
2023-02-14T07:10:19.602Z,14.63
2023-02-14T07:12:48.087Z,13.43
2023-02-14T07:15:17.150Z,14.60
2023-02-14T07:17:46.024Z,13.37
2023-02-14T07:20:16.093Z,13.63
2023-02-14T07:22:44.976Z,14.13
2023-02-14T07:25:13.761Z,16.60
2023-02-14T07:27:42.396Z,17.37
2023-02-14T07:30:12.590Z,16.20
2023-02-14T07:32:41.529Z,17.00
2023-02-14T07:35:10.368Z,18.17
2023-02-14T07:37:40.310Z,15.93
2023-02-14T07:40:14.662Z,18.17
2023-02-14T07:42:44.015Z,17.07
2023-02-14T07:45:21.945Z,15.63
2023-02-14T07:47:51.738Z,16.40
2023-02-14T07:50:20.700Z,15.10
2023-02-14T07:52:50.908Z,16.93
2023-02-14T07:55:20.274Z,15.70
2023-02-14T07:57:50.545Z,15.67
2023-02-14T08:00:20.015Z,15.43
2023-02-14T08:02:49.635Z,15.13
2023-02-14T08:05:19.080Z,13.60
2023-02-14T08:07:47.633Z,15.13
2023-02-14T08:10:17.782Z,14.57
2023-02-14T08:13:03.171Z,16.27
2023-02-14T08:15:51.476Z,14.17
2023-02-14T08:18:20.929Z,16.77
2023-02-14T08:20:50.163Z,15.00
2023-02-14T08:23:19.933Z,16.13
2023-02-14T08:25:51.477Z,18.63
2023-02-14T08:28:24.057Z,18.77
2023-02-14T08:30:53.620Z,19.07
2023-02-14T08:33:25.296Z,17.67
2023-02-14T08:35:53.921Z,17.90
2023-02-14T08:38:22.596Z,19.87
2023-02-14T08:40:52.547Z,20.30
2023-02-14T08:43:21.135Z,21.40
2023-02-14T08:45:53.102Z,20.73
2023-02-14T08:48:23.463Z,23.10
2023-02-14T08:50:52.045Z,24.20
2023-02-14T08:53:22.059Z,22.27
2023-02-14T08:55:52.471Z,23.57
2023-02-14T08:58:21.366Z,23.93
2023-02-14T09:00:50.189Z,23.87
2023-02-14T09:03:18.915Z,23.77
2023-02-14T09:05:47.560Z,24.07
2023-02-14T09:08:16.438Z,22.80
2023-02-14T09:10:45.157Z,23.57
2023-02-14T09:13:15.297Z,24.67
2023-02-14T09:15:43.870Z,24.73
2023-02-14T09:18:12.595Z,24.93
2023-02-14T09:20:41.396Z,24.77
2023-02-14T09:23:09.927Z,25.43
2023-02-14T09:25:38.473Z,27.10
2023-02-14T09:28:07.067Z,25.37
2023-02-14T09:30:36.911Z,22.93
2023-02-14T09:33:05.605Z,24.43
2023-02-14T09:35:52.087Z,24.80
2023-02-14T09:38:20.865Z,23.87
2023-02-14T09:40:50.429Z,23.10
2023-02-14T09:43:24.601Z,22.40
2023-02-14T09:45:57.865Z,22.27
2023-02-14T09:48:31.829Z,21.63
2023-02-14T09:51:04.723Z,19.93
2023-02-14T09:53:36.229Z,20.07
2023-02-14T09:56:10.227Z,21.07
2023-02-14T09:58:46.937Z,18.40
2023-02-14T10:01:23.369Z,20.17
2023-02-14T10:04:03.045Z,17.53
2023-02-14T10:06:43.583Z,19.40
2023-02-14T10:09:21.979Z,17.27
2023-02-14T10:11:51.344Z,17.73
2023-02-14T10:14:22.504Z,18.23
2023-02-14T10:16:56.127Z,16.47
2023-02-14T10:19:29.467Z,16.87
2023-02-14T10:22:02.119Z,17.07
2023-02-14T10:24:36.274Z,15.17
2023-02-14T10:27:13.849Z,15.07
2023-02-14T10:29:43.091Z,14.70
2023-02-14T10:32:16.731Z,15.33
2023-02-14T10:34:49.222Z,14.30
2023-02-14T10:37:30.218Z,15.60
2023-02-14T10:40:25.959Z,16.53
2023-02-14T10:43:01.054Z,16.10
2023-02-14T10:45:40.235Z,15.80
2023-02-14T10:48:22.276Z,15.53
2023-02-14T10:50:58.018Z,16.83
2023-02-14T10:53:42.811Z,16.10
2023-02-14T10:56:20.232Z,15.97
2023-02-14T10:58:51.532Z,15.37
2023-02-14T11:01:20.402Z,15.73
2023-02-14T11:03:56.022Z,14.87
2023-02-14T11:06:25.023Z,15.40
2023-02-14T11:08:55.582Z,15.53
2023-02-14T11:11:31.305Z,15.73
2023-02-14T11:13:59.968Z,15.20
2023-02-14T11:16:34.259Z,14.67
2023-02-14T11:19:20.346Z,15.77
2023-02-14T11:21:50.718Z,15.37
2023-02-14T11:24:21.150Z,15.10
2023-02-14T11:26:53.032Z,15.00
2023-02-14T11:29:30.119Z,14.67
2023-02-14T11:32:07.618Z,14.93
2023-02-14T11:34:41.012Z,14.37
2023-02-14T11:37:26.823Z,14.47
2023-02-14T11:39:57.268Z,12.37
2023-02-14T11:42:39.718Z,13.83
2023-02-14T11:45:26.687Z,14.90
2023-02-14T11:48:11.050Z,13.97
2023-02-14T11:50:42.101Z,14.73
2023-02-14T11:53:12.639Z,16.10
2023-02-14T11:55:41.954Z,13.17
2023-02-14T11:58:33.317Z,13.97
2023-02-14T12:01:03.102Z,14.20
2023-02-14T12:03:39.203Z,14.27
2023-02-14T12:06:09.321Z,14.63
2023-02-14T12:08:39.477Z,14.90
2023-02-14T12:11:20.265Z,13.97
2023-02-14T12:13:54.668Z,13.93
2023-02-14T12:16:29.376Z,14.73
2023-02-14T12:19:03.321Z,15.20
2023-02-14T12:21:49.411Z,15.03
2023-02-14T12:24:24.706Z,15.50
2023-02-14T12:27:01.845Z,14.63
2023-02-14T12:29:36.035Z,13.67
2023-02-14T12:32:17.202Z,13.67
2023-02-14T12:34:45.868Z,14.27
2023-02-14T12:37:38.024Z,15.13
2023-02-14T12:40:21.398Z,14.33
2023-02-14T12:43:21.204Z,13.43
2023-02-14T12:46:07.939Z,13.60
2023-02-14T12:48:51.430Z,12.83
2023-02-14T12:51:26.002Z,13.27
2023-02-14T12:54:11.606Z,13.50
2023-02-14T12:56:51.523Z,12.63
2023-02-14T12:59:28.415Z,14.03
2023-02-14T13:02:12.659Z,13.13
2023-02-14T13:04:59.386Z,13.43
2023-02-14T13:07:52.414Z,12.77
2023-02-14T13:10:30.518Z,14.27
2023-02-14T13:13:04.763Z,14.43
2023-02-14T13:15:40.881Z,14.77
2023-02-14T13:18:17.845Z,13.97
2023-02-14T13:20:52.756Z,13.70
2023-02-14T13:23:27.591Z,14.70
2023-02-14T13:26:00.686Z,13.53
2023-02-14T13:28:31.582Z,12.53
2023-02-14T13:31:02.041Z,13.13
2023-02-14T13:33:37.982Z,13.00
2023-02-14T13:36:10.322Z,13.03
2023-02-14T13:38:45.031Z,13.20
2023-02-14T13:41:16.444Z,13.23
2023-02-14T13:43:50.437Z,12.90
2023-02-14T13:46:21.401Z,12.97
2023-02-14T13:48:59.734Z,12.13
2023-02-14T13:51:48.648Z,12.43
2023-02-14T13:54:32.743Z,10.43
2023-02-14T13:57:05.809Z,12.23
2023-02-14T13:59:36.492Z,11.60
2023-02-14T14:02:32.928Z,11.93
2023-02-14T14:05:01.478Z,12.47
2023-02-14T14:07:31.342Z,11.33
2023-02-14T14:10:02.784Z,11.03
2023-02-14T14:12:53.501Z,11.53
2023-02-14T14:15:22.158Z,14.03
2023-02-14T14:18:27.990Z,12.30
2023-02-14T14:20:56.493Z,12.50
2023-02-14T14:23:37.065Z,11.67
2023-02-14T14:26:34.749Z,10.83
2023-02-14T14:29:11.747Z,12.63
2023-02-14T14:31:42.128Z,11.00
2023-02-14T14:34:18.296Z,12.27
2023-02-14T14:36:47.203Z,11.73
2023-02-14T14:39:27.668Z,11.90
2023-02-14T14:41:56.657Z,12.37
2023-02-14T14:44:27.117Z,11.70
2023-02-14T14:47:00.119Z,12.23
2023-02-14T14:49:29.459Z,11.10
2023-02-14T14:51:58.773Z,12.53
2023-02-14T14:54:27.602Z,11.17
2023-02-14T14:56:59.307Z,12.13
2023-02-14T14:59:35.075Z,11.90
2023-02-14T15:02:05.420Z,12.03
2023-02-14T15:04:36.056Z,12.47
2023-02-14T15:07:20.109Z,12.17
2023-02-14T15:09:48.915Z,11.40
2023-02-14T15:12:39.600Z,11.03
2023-02-14T15:15:13.129Z,11.67
2023-02-14T15:17:43.232Z,11.43
2023-02-14T15:20:17.526Z,11.77
2023-02-14T15:22:47.918Z,12.37
2023-02-14T15:25:20.940Z,12.57
2023-02-14T15:27:50.249Z,11.23
2023-02-14T15:30:26.560Z,12.27
2023-02-14T15:32:55.535Z,12.20
2023-02-14T15:35:27.505Z,11.63
2023-02-14T15:38:01.408Z,12.27
2023-02-14T15:40:32.660Z,11.97
2023-02-14T15:43:15.035Z,12.50
2023-02-14T15:45:46.828Z,12.57
2023-02-14T15:48:18.916Z,12.53
2023-02-14T15:50:50.340Z,13.87
2023-02-14T15:53:37.505Z,12.90
2023-02-14T15:56:09.087Z,13.27
2023-02-14T15:58:40.229Z,12.90
2023-02-14T16:01:10.370Z,12.63
2023-02-14T16:03:43.687Z,14.23
2023-02-14T16:06:29.974Z,13.90
2023-02-14T16:08:59.222Z,13.17
2023-02-14T16:11:30.854Z,13.53
2023-02-14T16:13:59.309Z,14.83
2023-02-14T16:16:59.443Z,13.67
2023-02-14T16:19:36.666Z,12.73
2023-02-14T16:22:06.984Z,14.87
2023-02-14T16:24:35.987Z,13.33
2023-02-14T16:27:06.936Z,12.63
2023-02-14T16:29:36.857Z,14.07
2023-02-14T16:32:16.608Z,13.90
2023-02-14T16:34:47.218Z,15.63
2023-02-14T16:37:22.271Z,14.80
2023-02-14T16:39:52.044Z,15.27
2023-02-14T16:42:21.223Z,14.40
2023-02-14T16:44:50.253Z,16.00
2023-02-14T16:47:21.845Z,14.90
2023-02-14T16:49:52.969Z,17.13
2023-02-14T16:52:26.281Z,17.43
2023-02-14T16:54:54.919Z,14.87
2023-02-14T16:57:27.991Z,15.27
2023-02-14T16:59:57.634Z,14.27
2023-02-14T17:02:29.277Z,14.67
2023-02-14T17:04:57.842Z,17.07
2023-02-14T17:07:27.626Z,15.30
2023-02-14T17:09:58.531Z,15.07
2023-02-14T17:12:31.465Z,17.90
2023-02-14T17:15:05.904Z,16.27
2023-02-14T17:17:37.258Z,19.27
2023-02-14T17:20:08.137Z,15.60
2023-02-14T17:22:37.557Z,24.20
2023-02-14T17:25:06.768Z,17.83
2023-02-14T17:27:35.184Z,20.17
2023-02-14T17:30:04.013Z,17.87
2023-02-14T17:32:32.451Z,16.03
2023-02-14T17:35:03.540Z,18.33
2023-02-14T17:37:32.419Z,18.57
2023-02-14T17:40:00.893Z,19.90
2023-02-14T17:42:29.388Z,17.33
2023-02-14T17:44:57.820Z,18.97
2023-02-14T17:47:26.386Z,17.97
2023-02-14T17:49:54.829Z,17.70
2023-02-14T17:52:24.961Z,17.00
2023-02-14T17:54:53.372Z,16.20
2023-02-14T17:57:21.858Z,15.77
2023-02-14T17:59:51.161Z,15.50
2023-02-14T18:02:19.770Z,17.73
2023-02-14T18:04:48.458Z,16.97
2023-02-14T18:07:17.071Z,19.10
2023-02-14T18:09:46.897Z,18.53
2023-02-14T18:12:15.440Z,16.43
2023-02-14T18:14:44.217Z,18.63
2023-02-14T18:17:13.286Z,18.70
2023-02-14T18:19:41.890Z,18.10
2023-02-14T18:22:10.363Z,17.43
2023-02-14T18:24:38.827Z,16.90
2023-02-14T18:27:08.795Z,17.43
2023-02-14T18:29:39.236Z,17.97
2023-02-14T18:32:07.819Z,18.60
2023-02-14T18:34:38.238Z,18.00
2023-02-14T18:37:07.020Z,18.30
2023-02-14T18:39:35.467Z,17.67
2023-02-14T18:42:05.393Z,16.80
2023-02-14T18:44:35.442Z,16.27
2023-02-14T18:47:04.074Z,16.60
2023-02-14T18:49:32.945Z,18.63
2023-02-14T18:52:04.799Z,21.67
2023-02-14T18:54:33.261Z,19.03
2023-02-14T18:57:01.754Z,19.13
2023-02-14T18:59:30.237Z,16.30
2023-02-14T19:02:00.091Z,17.30
2023-02-14T19:04:28.928Z,18.27
2023-02-14T19:06:57.457Z,19.07
2023-02-14T19:09:27.423Z,17.30
2023-02-14T19:11:59.946Z,17.67
2023-02-14T19:14:28.566Z,18.03
2023-02-14T19:16:57.034Z,18.67
2023-02-14T19:19:26.942Z,19.10
2023-02-14T19:21:55.453Z,18.33
2023-02-14T19:24:25.549Z,20.70
2023-02-14T19:26:56.080Z,17.50
2023-02-14T19:29:25.125Z,18.63
2023-02-14T19:31:55.577Z,18.30
2023-02-14T19:34:29.533Z,18.47
2023-02-14T19:37:00.310Z,17.47
2023-02-14T19:39:30.463Z,17.87
2023-02-14T19:42:00.076Z,17.07
2023-02-14T19:44:30.990Z,17.57
2023-02-14T19:47:02.789Z,17.83
2023-02-14T19:49:34.330Z,19.20
2023-02-14T19:52:06.193Z,18.33
2023-02-14T19:54:39.371Z,19.97
2023-02-14T19:57:07.878Z,20.17
2023-02-14T19:59:36.334Z,21.37
2023-02-14T20:02:04.900Z,18.17
2023-02-14T20:04:35.024Z,18.03
2023-02-14T20:07:03.473Z,20.00
2023-02-14T20:09:31.949Z,20.30
2023-02-14T20:12:01.180Z,23.30
2023-02-14T20:14:38.448Z,19.87
2023-02-14T20:17:17.070Z,19.23
2023-02-14T20:19:47.014Z,19.27
2023-02-14T20:22:15.507Z,19.53
2023-02-14T20:24:44.139Z,19.80
2023-02-14T20:27:12.809Z,22.83
2023-02-14T20:29:43.242Z,21.30
2023-02-14T20:32:13.187Z,25.67
2023-02-14T20:34:42.922Z,21.47
2023-02-14T20:37:13.205Z,23.37
2023-02-14T20:39:41.865Z,22.17
2023-02-14T20:42:10.607Z,19.97
2023-02-14T20:44:39.142Z,19.83
2023-02-14T20:47:07.754Z,23.20
2023-02-14T20:49:36.708Z,22.07
2023-02-14T20:52:05.949Z,26.67
2023-02-14T20:54:37.545Z,23.67
2023-02-14T20:57:06.995Z,22.23
2023-02-14T20:59:35.909Z,20.17
2023-02-14T21:02:04.563Z,19.30
2023-02-14T21:04:33.127Z,16.63
2023-02-14T21:07:07.572Z,18.17
2023-02-14T21:09:38.748Z,15.97
2023-02-14T21:12:08.266Z,15.93
2023-02-14T21:14:36.780Z,16.57
2023-02-14T21:17:05.551Z,17.20
2023-02-14T21:19:34.231Z,16.20
2023-02-14T21:22:02.887Z,16.77
2023-02-14T21:24:31.569Z,17.07
2023-02-14T21:27:01.728Z,18.20
2023-02-14T21:29:30.229Z,17.73
2023-02-14T21:31:59.336Z,17.23
2023-02-14T21:34:29.302Z,15.03
2023-02-14T21:36:57.961Z,21.90
2023-02-14T21:39:27.770Z,18.20
2023-02-14T21:41:56.342Z,21.52
2023-02-14T21:44:43.166Z,17.33
2023-02-14T21:47:11.632Z,16.53
2023-02-14T21:49:57.478Z,15.73
2023-02-14T21:52:26.116Z,22.63
2023-02-14T21:54:54.598Z,21.17
2023-02-14T21:57:23.484Z,20.80
2023-02-14T21:59:53.322Z,17.23
2023-02-14T22:02:21.828Z,15.67
2023-02-14T22:04:50.372Z,15.57
2023-02-14T22:07:18.836Z,16.90
2023-02-14T22:09:47.343Z,17.47
2023-02-14T22:12:15.850Z,22.67
2023-02-14T22:14:44.401Z,16.97
2023-02-14T22:17:14.253Z,16.37
2023-02-14T22:19:42.787Z,16.27
2023-02-14T22:22:11.294Z,15.77
2023-02-14T22:24:39.758Z,17.03
2023-02-14T22:27:08.225Z,17.50
2023-02-14T22:29:36.893Z,16.43
2023-02-14T22:32:05.788Z,16.87
2023-02-14T22:34:35.811Z,18.40
2023-02-14T22:37:04.301Z,18.73
2023-02-14T22:39:32.880Z,16.33
2023-02-14T22:42:05.196Z,17.60
2023-02-14T22:44:33.736Z,16.60
2023-02-14T22:47:02.289Z,15.80
2023-02-14T22:49:31.052Z,17.13
2023-02-14T22:52:00.957Z,17.23
2023-02-14T22:54:30.356Z,16.00
2023-02-14T22:56:59.820Z,15.93
2023-02-14T22:59:31.169Z,15.77
2023-02-14T23:02:00.092Z,16.53
2023-02-14T23:04:29.819Z,16.47
2023-02-14T23:06:58.356Z,15.60
2023-02-14T23:09:28.210Z,16.13
2023-02-14T23:11:56.708Z,15.97
2023-02-14T23:14:42.714Z,17.30
2023-02-14T23:17:33.409Z,18.27
2023-02-14T23:20:19.132Z,19.10
2023-02-14T23:22:47.625Z,20.73
2023-02-14T23:25:17.516Z,20.50
2023-02-14T23:27:48.282Z,19.33
2023-02-14T23:30:18.835Z,17.37
2023-02-14T23:32:48.046Z,18.13
2023-02-14T23:35:17.442Z,17.67
2023-02-14T23:37:45.881Z,17.40
2023-02-14T23:40:14.524Z,16.77
2023-02-14T23:42:44.356Z,17.63
2023-02-14T23:45:30.192Z,17.67
2023-02-14T23:48:03.006Z,17.00
2023-02-14T23:50:31.518Z,17.57
2023-02-14T23:53:00.162Z,16.23
2023-02-14T23:55:28.675Z,17.83
2023-02-14T23:57:58.492Z,17.43
